createdAt,value
2023-04-15T00:01:03.965Z,100.00
2023-04-15T00:04:06.347Z,100.00
2023-04-15T00:07:08.773Z,100.00
2023-04-15T00:10:10.949Z,100.00
2023-04-15T00:13:12.888Z,100.00
2023-04-15T00:16:14.805Z,100.00
2023-04-15T00:19:16.871Z,100.00
2023-04-15T00:22:18.807Z,100.00
2023-04-15T00:25:20.761Z,100.00
2023-04-15T00:28:22.830Z,100.00
2023-04-15T00:31:24.842Z,100.00
2023-04-15T00:34:28.020Z,100.00
2023-04-15T00:37:30.581Z,100.00
2023-04-15T00:40:33.491Z,100.00
2023-04-15T00:43:35.576Z,100.00
2023-04-15T00:46:39.370Z,100.00
2023-04-15T00:49:41.588Z,100.00
2023-04-15T00:52:43.498Z,100.00
2023-04-15T00:55:45.518Z,100.00
2023-04-15T00:58:48.320Z,100.00
2023-04-15T01:01:50.788Z,100.00
2023-04-15T01:04:53.207Z,100.00
2023-04-15T01:07:55.414Z,100.00
2023-04-15T01:10:58.770Z,100.00
2023-04-15T01:14:01.885Z,100.00
2023-04-15T01:17:03.854Z,100.00
2023-04-15T01:20:07.024Z,100.00
2023-04-15T01:23:09.836Z,100.00
2023-04-15T01:26:12.175Z,100.00
2023-04-15T01:29:14.212Z,100.00
2023-04-15T01:32:16.577Z,100.00
2023-04-15T01:35:18.878Z,100.00
2023-04-15T01:38:20.923Z,100.00
2023-04-15T01:41:28.568Z,100.00
2023-04-15T01:44:30.813Z,100.00
2023-04-15T01:47:32.778Z,100.00
2023-04-15T01:50:36.956Z,100.00
2023-04-15T01:53:38.873Z,100.00
2023-04-15T01:56:40.839Z,100.00
2023-04-15T01:59:42.810Z,100.00
2023-04-15T02:02:45.018Z,100.00
2023-04-15T02:05:47.163Z,100.00
2023-04-15T02:08:49.033Z,100.00
2023-04-15T02:11:52.194Z,100.00
2023-04-15T02:14:54.293Z,100.00
2023-04-15T02:17:57.055Z,100.00
2023-04-15T02:20:59.181Z,100.00
2023-04-15T02:24:02.424Z,100.00
2023-04-15T02:27:04.535Z,100.00
2023-04-15T02:30:07.644Z,100.00
2023-04-15T02:33:10.142Z,100.00
2023-04-15T02:36:12.587Z,100.00
2023-04-15T02:39:16.912Z,100.00
2023-04-15T02:42:19.324Z,100.00
2023-04-15T02:45:24.239Z,100.00
2023-04-15T02:48:26.212Z,100.00
2023-04-15T02:51:31.605Z,100.00
2023-04-15T02:54:34.173Z,100.00
2023-04-15T02:57:40.811Z,100.00
2023-04-15T03:00:42.886Z,100.00
2023-04-15T03:03:45.017Z,100.00
2023-04-15T03:06:47.610Z,100.00
2023-04-15T03:09:49.611Z,100.00
2023-04-15T03:12:51.783Z,100.00
2023-04-15T03:15:53.724Z,100.00
2023-04-15T03:18:56.366Z,100.00
2023-04-15T03:21:58.491Z,100.00
2023-04-15T03:25:00.554Z,100.00
2023-04-15T03:28:02.512Z,100.00
2023-04-15T03:31:04.597Z,100.00
2023-04-15T03:34:06.736Z,100.00
2023-04-15T03:37:08.836Z,100.00
2023-04-15T03:40:11.625Z,100.00
2023-04-15T03:43:13.734Z,100.00
2023-04-15T03:46:15.787Z,100.00
2023-04-15T03:49:19.384Z,100.00
2023-04-15T03:52:24.035Z,100.00
2023-04-15T03:55:26.154Z,100.00
2023-04-15T03:58:28.145Z,100.00
2023-04-15T04:01:30.207Z,100.00
2023-04-15T04:04:32.207Z,100.00
2023-04-15T04:07:34.205Z,100.00
2023-04-15T04:10:36.146Z,100.00
2023-04-15T04:13:38.095Z,100.00
2023-04-15T04:16:40.107Z,100.00
2023-04-15T04:19:42.018Z,100.00
2023-04-15T04:22:44.047Z,100.00
2023-04-15T04:25:46.336Z,100.00
2023-04-15T04:28:48.663Z,100.00
2023-04-15T04:31:50.609Z,100.00
2023-04-15T04:34:52.582Z,100.00
2023-04-15T04:38:01.430Z,100.00
2023-04-15T04:41:03.422Z,100.00
2023-04-15T04:44:05.480Z,100.00
2023-04-15T04:47:07.830Z,100.00
2023-04-15T04:50:10.412Z,100.00
2023-04-15T04:53:12.554Z,100.00
2023-04-15T04:56:14.401Z,100.00
2023-04-15T04:59:17.979Z,100.00
2023-04-15T05:02:21.659Z,100.00
2023-04-15T05:05:23.730Z,100.00
2023-04-15T05:08:25.948Z,100.00
2023-04-15T05:11:28.399Z,100.00
2023-04-15T05:14:30.751Z,100.00
2023-04-15T05:17:33.524Z,100.00
2023-04-15T05:20:35.587Z,100.00
2023-04-15T05:23:41.049Z,100.00
2023-04-15T05:26:43.056Z,100.00
2023-04-15T05:29:45.208Z,100.00
2023-04-15T05:32:47.289Z,100.00
2023-04-15T05:35:49.203Z,100.00
2023-04-15T05:38:51.437Z,100.00
2023-04-15T05:41:54.468Z,100.00
2023-04-15T05:44:56.491Z,100.00
2023-04-15T05:47:58.604Z,100.00
2023-04-15T05:51:01.468Z,100.00
2023-04-15T05:54:03.827Z,100.00
2023-04-15T05:57:05.835Z,100.00
2023-04-15T06:00:08.300Z,100.00
2023-04-15T06:03:11.994Z,100.00
2023-04-15T06:06:14.465Z,100.00
2023-04-15T06:09:17.006Z,100.00
2023-04-15T06:12:19.009Z,100.00
2023-04-15T06:15:21.086Z,100.00
2023-04-15T06:18:23.001Z,100.00
2023-04-15T06:21:25.071Z,100.00
2023-04-15T06:24:27.213Z,100.00
2023-04-15T06:27:29.299Z,100.00
2023-04-15T06:30:31.353Z,100.00
2023-04-15T06:33:33.327Z,100.00
2023-04-15T06:36:35.253Z,100.00
2023-04-15T06:39:37.853Z,100.00
2023-04-15T06:42:39.976Z,100.00
2023-04-15T06:45:41.964Z,100.00
2023-04-15T06:48:44.487Z,100.00
2023-04-15T06:51:46.419Z,100.00
2023-04-15T06:54:48.432Z,100.00
2023-04-15T06:57:50.417Z,100.00
2023-04-15T07:00:53.198Z,100.00
2023-04-15T07:03:55.543Z,100.00
2023-04-15T07:06:57.532Z,100.00
2023-04-15T07:10:00.092Z,100.00
2023-04-15T07:13:02.227Z,100.00
2023-04-15T07:16:04.689Z,100.00
2023-04-15T07:19:06.728Z,100.00
2023-04-15T07:22:09.249Z,100.00
2023-04-15T07:25:11.261Z,100.00
2023-04-15T07:28:14.607Z,100.00
2023-04-15T07:31:17.543Z,100.00
2023-04-15T07:34:20.890Z,100.00
2023-04-15T07:37:22.973Z,100.00
2023-04-15T07:40:25.126Z,100.00
2023-04-15T07:43:27.621Z,100.00
2023-04-15T07:46:30.026Z,100.00
2023-04-15T07:49:32.265Z,100.00
2023-04-15T07:52:39.208Z,100.00
2023-04-15T07:55:41.212Z,100.00
2023-04-15T07:58:43.681Z,100.00
2023-04-15T08:01:45.645Z,100.00
2023-04-15T08:04:48.084Z,99.95
2023-04-15T08:07:50.880Z,99.53
2023-04-15T08:10:53.121Z,99.52
2023-04-15T08:13:55.193Z,99.18
2023-04-15T08:16:57.290Z,99.12
2023-04-15T08:19:59.248Z,99.11
2023-04-15T08:23:01.192Z,99.01
2023-04-15T08:26:03.248Z,99.37
2023-04-15T08:29:05.494Z,98.89
2023-04-15T08:32:07.890Z,98.65
2023-04-15T08:35:10.567Z,98.13
2023-04-15T08:38:12.681Z,97.85
2023-04-15T08:41:23.617Z,97.63
2023-04-15T08:44:29.381Z,96.76
2023-04-15T08:47:33.874Z,96.89
2023-04-15T08:50:35.976Z,96.42
2023-04-15T08:53:37.913Z,96.08
2023-04-15T08:56:40.876Z,95.83
2023-04-15T08:59:44.015Z,95.34
2023-04-15T09:02:46.995Z,95.34
2023-04-15T09:05:51.406Z,94.78
2023-04-15T09:08:54.943Z,94.57
2023-04-15T09:11:57.151Z,93.75
2023-04-15T09:14:59.356Z,92.50
2023-04-15T09:18:01.383Z,92.59
2023-04-15T09:21:14.981Z,90.51
2023-04-15T09:24:17.289Z,90.83
2023-04-15T09:27:19.258Z,90.58
2023-04-15T09:30:21.400Z,89.50
2023-04-15T09:33:24.004Z,89.24
2023-04-15T09:36:29.924Z,88.53
2023-04-15T09:39:52.816Z,87.50
2023-04-15T09:42:57.675Z,85.91
2023-04-15T09:45:59.698Z,86.22
2023-04-15T09:49:09.414Z,85.36
2023-04-15T09:52:14.418Z,84.27
2023-04-15T09:55:18.964Z,80.63
2023-04-15T09:58:27.775Z,80.62
2023-04-15T10:01:29.911Z,78.78
2023-04-15T10:04:37.298Z,77.76
2023-04-15T10:07:43.958Z,77.14
2023-04-15T10:10:48.894Z,76.41
2023-04-15T10:13:53.300Z,76.74
2023-04-15T10:17:00.683Z,74.33
2023-04-15T10:20:05.611Z,72.82
2023-04-15T10:23:12.859Z,68.99
2023-04-15T10:26:17.918Z,65.81
2023-04-15T10:29:21.539Z,63.70
2023-04-15T10:32:26.806Z,61.12
2023-04-15T10:35:31.670Z,60.45
2023-04-15T10:38:42.908Z,57.64
2023-04-15T10:41:44.943Z,59.27
2023-04-15T10:44:56.580Z,55.65
2023-04-15T10:48:03.441Z,55.17
2023-04-15T10:51:05.891Z,54.90
2023-04-15T10:54:16.447Z,58.65
2023-04-15T10:57:24.672Z,61.88
2023-04-15T11:00:31.917Z,63.96
2023-04-15T11:03:41.923Z,67.92
2023-04-15T11:06:45.748Z,69.69
2023-04-15T11:09:47.929Z,69.09
2023-04-15T11:12:52.890Z,65.01
2023-04-15T11:15:58.500Z,64.47
2023-04-15T11:19:01.765Z,63.78
2023-04-15T11:22:10.853Z,63.81
2023-04-15T11:25:29.733Z,61.73
2023-04-15T11:28:33.542Z,62.06
2023-04-15T11:31:35.614Z,65.28
2023-04-15T11:34:37.682Z,65.67
2023-04-15T11:37:39.641Z,66.37
2023-04-15T11:40:44.525Z,66.61
2023-04-15T11:43:48.310Z,67.34
2023-04-15T11:46:50.514Z,67.40
2023-04-15T11:49:52.657Z,67.04
2023-04-15T11:52:59.825Z,66.41
2023-04-15T11:56:02.057Z,65.99
2023-04-15T11:59:04.500Z,65.58
2023-04-15T12:02:15.413Z,66.43
2023-04-15T12:05:17.480Z,67.00
2023-04-15T12:08:19.527Z,67.82
2023-04-15T12:11:27.474Z,71.31
2023-04-15T12:14:31.412Z,77.31
2023-04-15T12:17:51.286Z,82.37
2023-04-15T12:20:54.723Z,83.29
2023-04-15T12:23:58.267Z,82.80
2023-04-15T12:27:05.878Z,83.48
2023-04-15T12:30:09.067Z,83.66
2023-04-15T12:33:12.134Z,83.02
2023-04-15T12:36:14.449Z,83.51
2023-04-15T12:39:16.598Z,84.59
2023-04-15T12:42:19.110Z,81.93
2023-04-15T12:45:21.548Z,79.56
2023-04-15T12:48:23.760Z,78.30
2023-04-15T12:51:27.427Z,78.55
2023-04-15T12:54:31.111Z,78.32
2023-04-15T12:57:33.226Z,80.32
2023-04-15T13:00:35.675Z,82.32
2023-04-15T13:03:38.135Z,83.41
2023-04-15T13:06:41.126Z,82.19
2023-04-15T13:09:43.202Z,78.37
2023-04-15T13:12:47.046Z,78.01
2023-04-15T13:15:49.080Z,78.73
2023-04-15T13:18:51.113Z,80.72
2023-04-15T13:21:53.286Z,82.96
2023-04-15T13:24:55.387Z,86.41
2023-04-15T13:27:57.825Z,86.69
2023-04-15T13:31:00.508Z,89.35
2023-04-15T13:34:03.065Z,89.64
2023-04-15T13:37:08.881Z,90.74
2023-04-15T13:40:11.967Z,92.58
2023-04-15T13:43:14.052Z,92.93
2023-04-15T13:46:16.330Z,93.41
2023-04-15T13:49:18.789Z,94.87
2023-04-15T13:52:21.107Z,94.97
2023-04-15T13:55:25.457Z,94.31
2023-04-15T13:58:28.598Z,94.52
2023-04-15T14:01:31.291Z,93.15
2023-04-15T14:04:33.652Z,91.49
2023-04-15T14:07:36.015Z,87.07
2023-04-15T14:10:38.373Z,86.28
2023-04-15T14:13:41.155Z,84.17
2023-04-15T14:16:43.156Z,82.04
2023-04-15T14:19:45.309Z,78.94
2023-04-15T14:22:47.467Z,77.35
2023-04-15T14:25:50.360Z,76.64
2023-04-15T14:28:52.335Z,77.16
2023-04-15T14:32:06.826Z,76.05
2023-04-15T14:35:13.989Z,75.61
2023-04-15T14:38:16.424Z,77.33
2023-04-15T14:41:18.615Z,76.74
2023-04-15T14:44:20.539Z,76.71
2023-04-15T14:47:22.863Z,77.67
2023-04-15T14:50:25.104Z,77.60
2023-04-15T14:53:27.486Z,75.48
2023-04-15T14:56:29.493Z,74.33
2023-04-15T14:59:31.694Z,74.86
2023-04-15T15:05:41.370Z,75.12
2023-04-15T15:08:44.631Z,75.71
2023-04-15T15:11:47.569Z,76.04
2023-04-15T15:14:51.366Z,76.23
2023-04-15T15:17:55.321Z,76.82
2023-04-15T15:20:57.914Z,75.94
2023-04-15T15:24:00.792Z,77.07
2023-04-15T15:27:03.105Z,77.41
2023-04-15T15:30:06.968Z,78.13
2023-04-15T15:33:09.092Z,80.26
2023-04-15T15:36:11.392Z,79.67
2023-04-15T15:39:13.597Z,80.11
2023-04-15T15:42:15.533Z,79.09
2023-04-15T15:45:18.008Z,78.40
2023-04-15T15:48:20.500Z,79.68
2023-04-15T15:51:22.671Z,81.08
2023-04-15T15:54:25.155Z,80.48
2023-04-15T15:57:27.138Z,80.32
2023-04-15T16:00:29.271Z,80.36
2023-04-15T16:03:31.636Z,80.73
2023-04-15T16:06:35.034Z,81.05
2023-04-15T16:09:37.705Z,81.40
2023-04-15T16:12:40.911Z,81.11
2023-04-15T16:15:42.878Z,81.84
2023-04-15T16:18:44.803Z,81.59
2023-04-15T16:21:47.044Z,81.92
2023-04-15T16:24:49.609Z,82.62
2023-04-15T16:28:01.323Z,83.01
2023-04-15T16:31:05.521Z,83.08
2023-04-15T16:34:07.585Z,84.04
2023-04-15T16:37:11.060Z,83.73
2023-04-15T16:40:13.589Z,84.39
2023-04-15T16:43:16.824Z,84.45
2023-04-15T16:46:20.490Z,85.08
2023-04-15T16:49:24.356Z,85.82
2023-04-15T16:52:29.722Z,86.15
2023-04-15T16:55:33.682Z,86.25
2023-04-15T16:58:38.048Z,86.83
2023-04-15T17:01:42.285Z,86.92
2023-04-15T17:04:45.855Z,87.85
2023-04-15T17:07:50.455Z,87.86
2023-04-15T17:10:55.845Z,88.35
2023-04-15T17:13:59.656Z,87.91
2023-04-15T17:17:03.897Z,89.07
2023-04-15T17:20:08.467Z,89.03
2023-04-15T17:23:12.660Z,89.76
2023-04-15T17:26:16.514Z,90.24
2023-04-15T17:29:20.406Z,90.84
2023-04-15T17:32:25.508Z,90.39
2023-04-15T17:35:29.175Z,90.87
2023-04-15T17:38:32.796Z,91.09
2023-04-15T17:41:36.760Z,90.93
2023-04-15T17:44:41.963Z,91.54
2023-04-15T17:47:45.420Z,91.37
2023-04-15T17:50:48.888Z,91.22
2023-04-15T17:53:52.825Z,91.53
2023-04-15T17:56:57.149Z,91.38
2023-04-15T18:00:00.023Z,91.65
2023-04-15T18:03:02.289Z,92.15
2023-04-15T18:06:05.111Z,92.57
2023-04-15T18:09:09.484Z,93.19
2023-04-15T18:12:12.005Z,93.00
2023-04-15T18:15:14.955Z,93.64
2023-04-15T18:18:17.691Z,93.75
2023-04-15T18:21:21.874Z,93.73
2023-04-15T18:24:24.645Z,94.28
2023-04-15T18:27:28.252Z,94.17
2023-04-15T18:30:30.766Z,94.26
2023-04-15T18:33:33.939Z,94.52
2023-04-15T18:36:37.239Z,94.97
2023-04-15T18:39:40.286Z,95.79
2023-04-15T18:42:43.517Z,95.90
2023-04-15T18:45:46.334Z,95.89
2023-04-15T18:48:50.757Z,96.02
2023-04-15T18:51:53.770Z,95.68
2023-04-15T18:54:56.410Z,95.31
2023-04-15T18:58:06.567Z,94.96
2023-04-15T19:01:12.023Z,95.22
2023-04-15T19:04:18.071Z,94.91
2023-04-15T19:07:20.946Z,95.21
2023-04-15T19:10:23.948Z,94.97
2023-04-15T19:13:26.956Z,95.29
2023-04-15T19:16:29.720Z,95.37
2023-04-15T19:19:32.386Z,95.07
2023-04-15T19:22:38.450Z,95.03
2023-04-15T19:25:41.745Z,94.57
2023-04-15T19:28:44.665Z,94.07
2023-04-15T19:31:47.460Z,93.72
2023-04-15T19:34:52.852Z,93.87
2023-04-15T19:37:55.802Z,93.85
2023-04-15T19:41:00.863Z,93.68
2023-04-15T19:44:05.207Z,93.71
2023-04-15T19:47:08.541Z,93.51
2023-04-15T19:50:12.530Z,93.61
2023-04-15T19:53:15.083Z,93.82
2023-04-15T19:56:18.455Z,93.63
2023-04-15T19:59:21.478Z,93.75
2023-04-15T20:02:24.247Z,93.50
2023-04-15T20:05:27.143Z,93.36
2023-04-15T20:08:29.731Z,92.99
2023-04-15T20:12:05.118Z,92.67
2023-04-15T20:14:54.868Z,92.69
2023-04-15T20:17:57.197Z,92.72
2023-04-15T20:20:59.975Z,92.26
2023-04-15T20:24:02.694Z,92.11
2023-04-15T20:27:05.084Z,91.92
2023-04-15T20:30:08.553Z,91.71
2023-04-15T20:33:11.404Z,91.92
2023-04-15T20:36:13.824Z,91.92
2023-04-15T20:39:16.705Z,91.78
2023-04-15T20:42:20.219Z,91.43
2023-04-15T20:45:22.880Z,90.83
2023-04-15T20:48:25.110Z,90.35
2023-04-15T20:51:27.756Z,90.02
2023-04-15T20:54:30.477Z,89.33
2023-04-15T20:57:44.404Z,89.53
2023-04-15T21:00:46.957Z,89.70
2023-04-15T21:03:49.151Z,89.76
2023-04-15T21:06:52.600Z,89.83
2023-04-15T21:09:56.333Z,90.02
2023-04-15T21:12:58.688Z,90.55
2023-04-15T21:16:00.840Z,90.52
2023-04-15T21:19:03.110Z,91.00
2023-04-15T21:22:05.435Z,90.91
2023-04-15T21:25:07.944Z,91.45
2023-04-15T21:28:10.307Z,91.86
2023-04-15T21:31:12.262Z,91.77
2023-04-15T21:34:14.253Z,92.18
2023-04-15T21:37:16.335Z,92.40
2023-04-15T21:40:19.532Z,93.24
2023-04-15T21:43:23.019Z,93.51
2023-04-15T21:46:32.583Z,93.26
2023-04-15T21:49:35.076Z,93.62
2023-04-15T21:52:37.453Z,93.87
2023-04-15T21:55:39.337Z,94.33
2023-04-15T21:58:41.339Z,94.09
2023-04-15T22:01:43.406Z,94.17
2023-04-15T22:04:45.416Z,94.47
2023-04-15T22:07:47.462Z,94.66
2023-04-15T22:10:49.440Z,94.77
2023-04-15T22:13:51.490Z,95.05
2023-04-15T22:16:53.522Z,95.21
2023-04-15T22:19:55.625Z,95.42
2023-04-15T22:22:57.827Z,95.41
2023-04-15T22:26:00.141Z,95.33
2023-04-15T22:29:02.204Z,95.37
2023-04-15T22:32:04.520Z,95.48
2023-04-15T22:35:07.118Z,95.67
2023-04-15T22:38:09.122Z,96.11
2023-04-15T22:41:11.510Z,95.73
2023-04-15T22:44:13.496Z,95.95
2023-04-15T22:47:15.560Z,95.97
2023-04-15T22:50:17.738Z,96.53
2023-04-15T22:53:20.191Z,96.66
2023-04-15T22:56:23.007Z,96.49
2023-04-15T22:59:25.486Z,96.65
2023-04-15T23:02:28.011Z,96.96
2023-04-15T23:05:30.415Z,96.74
2023-04-15T23:08:32.573Z,97.18
2023-04-15T23:11:34.752Z,97.11
2023-04-15T23:14:36.817Z,96.56
2023-04-15T23:17:38.902Z,96.83
2023-04-15T23:20:41.201Z,97.09
2023-04-15T23:23:43.225Z,97.07
2023-04-15T23:26:45.122Z,97.13
2023-04-15T23:29:47.124Z,97.37
2023-04-15T23:32:49.541Z,97.57
2023-04-15T23:35:52.132Z,97.70
2023-04-15T23:38:54.500Z,97.77
2023-04-15T23:41:57.213Z,97.71
2023-04-15T23:44:59.090Z,97.45
2023-04-15T23:48:01.309Z,97.54
2023-04-15T23:51:03.597Z,97.38
2023-04-15T23:54:05.721Z,97.27
2023-04-15T23:57:07.732Z,97.17
